Time;durP1;ratioP1;P1;durP2;ratioP2;P2;SDS_P1;SDS_P2;PMS_P1;PMS_P2;Temp;Humidity;BMP_temperature;BMP_pressure;BME280_temperature;BME280_humidity;BME280_pressure;Samples;Min_cycle;Max_cycle;Signal;HPM_P1;HPM_P2
2023/02/11 00:01:36;;;;;;;23.80;15.30;;;;;;;-2.20;58.44;101551.94;108478;1251;60300;-71
2023/02/11 00:04:05;;;;;;;25.20;14.90;;;;;;;-2.16;58.52;101550.34;106131;1251;64415;-70
2023/02/11 00:06:33;;;;;;;24.60;15.10;;;;;;;-2.12;58.54;101552.04;106185;1251;60395;-72
2023/02/11 00:09:07;;;;;;;25.90;16.20;;;;;;;-2.09;58.50;101550.45;106672;1250;60327;-73
2023/02/11 00:11:36;;;;;;;28.20;17.00;;;;;;;-2.05;58.66;101553.70;106413;1251;67171;-69
2023/02/11 00:14:06;;;;;;;24.90;16.20;;;;;;;-2.01;58.74;101555.05;106049;1251;60712;-69
2023/02/11 00:16:35;;;;;;;24.60;15.50;;;;;;;-1.98;58.73;101558.13;105903;1251;65481;-71
2023/02/11 00:19:05;;;;;;;25.50;16.40;;;;;;;-1.95;58.74;101559.82;106034;1252;60408;-70
2023/02/11 00:21:37;;;;;;;27.00;16.40;;;;;;;-1.92;58.75;101559.45;105846;1251;60494;-70
2023/02/11 00:24:05;;;;;;;27.00;16.40;;;;;;;-1.89;58.73;101560.46;106137;1254;66732;-70
2023/02/11 00:26:35;;;;;;;28.40;16.90;;;;;;;-1.86;58.79;101562.31;106916;1251;60600;-70
2023/02/11 00:29:04;;;;;;;27.80;16.90;;;;;;;-1.85;58.81;101560.23;106071;1252;65295;-70
2023/02/11 00:31:34;;;;;;;25.20;16.70;;;;;;;-1.84;58.72;101559.20;106099;1254;60319;-72
2023/02/11 00:34:08;;;;;;;24.10;15.60;;;;;;;-1.82;58.81;101559.03;105854;1256;60382;-71
2023/02/11 00:36:37;;;;;;;25.90;17.00;;;;;;;-1.80;58.83;101557.10;105935;1258;66765;-69
2023/02/11 00:39:08;;;;;;;28.30;17.30;;;;;;;-1.77;58.81;101558.09;105911;1250;60402;-70
2023/02/11 00:41:37;;;;;;;26.90;16.10;;;;;;;-1.75;58.83;101554.27;106096;1254;65655;-71
2023/02/11 00:44:06;;;;;;;26.40;16.70;;;;;;;-1.73;58.76;101553.59;108372;1251;60427;-70
2023/02/11 00:46:34;;;;;;;27.30;16.50;;;;;;;-1.71;58.84;101550.45;106067;1251;60358;-69
2023/02/11 00:49:02;;;;;;;24.50;15.70;;;;;;;-1.70;58.90;101553.55;106970;1251;66501;-71
2023/02/11 00:51:31;;;;;;;21.10;14.10;;;;;;;-1.69;59.05;101555.77;106838;1251;60508;-70
2023/02/11 00:53:59;;;;;;;25.80;16.90;;;;;;;-1.67;59.00;101559.21;106084;1251;65226;-70
2023/02/11 00:56:28;;;;;;;25.90;16.80;;;;;;;-1.65;59.00;101559.70;106657;1251;60322;-70
2023/02/11 00:58:57;;;;;;;25.00;15.80;;;;;;;-1.63;59.04;101558.84;106324;1258;60342;-69
2023/02/11 01:01:25;;;;;;;28.10;17.50;;;;;;;-1.62;59.10;101559.17;105977;1251;66329;-69
2023/02/11 01:03:54;;;;;;;29.20;17.90;;;;;;;-1.60;59.18;101557.59;105938;1251;60415;-69
2023/02/11 01:06:23;;;;;;;30.30;17.80;;;;;;;-1.58;59.13;101556.69;105941;1254;65263;-69
2023/02/11 01:08:51;;;;;;;27.40;17.30;;;;;;;-1.56;59.06;101558.57;106027;1257;60556;-70
2023/02/11 01:11:21;;;;;;;26.40;17.00;;;;;;;-1.54;59.16;101558.90;105979;1251;60449;-69
2023/02/11 01:13:49;;;;;;;27.00;16.90;;;;;;;-1.52;59.16;101557.86;105931;1252;66728;-70
2023/02/11 01:16:18;;;;;;;27.20;17.20;;;;;;;-1.52;59.32;101554.74;106126;1251;60444;-70
2023/02/11 01:18:47;;;;;;;28.00;17.70;;;;;;;-1.52;59.42;101553.89;106514;1252;65631;-70
2023/02/11 01:21:17;;;;;;;26.10;17.00;;;;;;;-1.53;59.45;101556.48;106180;1250;60428;-70
2023/02/11 01:23:46;;;;;;;25.80;15.90;;;;;;;-1.53;59.53;101555.80;106301;1251;60476;-72
2023/02/11 01:26:14;;;;;;;25.20;16.30;;;;;;;-1.53;59.55;101554.06;105959;1251;66713;-71
2023/02/11 01:28:43;;;;;;;29.30;17.60;;;;;;;-1.52;59.71;101544.90;106099;1256;60444;-74
2023/02/11 01:31:11;;;;;;;27.60;16.60;;;;;;;-1.52;59.82;101544.73;106157;1251;65575;-71
2023/02/11 01:33:39;;;;;;;30.90;18.00;;;;;;;-1.51;59.94;101544.01;106153;1254;60520;-69
2023/02/11 01:36:09;;;;;;;27.00;16.70;;;;;;;-1.49;59.92;101545.02;106237;1252;60406;-69
2023/02/11 01:38:43;;;;;;;28.70;17.60;;;;;;;-1.46;60.01;101546.54;106228;1251;66291;-70
2023/02/11 01:41:14;;;;;;;26.10;16.40;;;;;;;-1.44;60.16;101549.64;106060;1256;60427;-73
2023/02/11 01:43:45;;;;;;;34.30;17.40;;;;;;;-1.42;60.27;101549.45;106288;1251;65785;-70
2023/02/11 01:46:35;;;;;;;31.50;16.90;;;;;;;-1.40;60.42;101549.77;106353;1251;60616;-69
2023/02/11 01:49:10;;;;;;;28.30;17.00;;;;;;;-1.37;60.38;101550.06;105921;1259;60438;-71
2023/02/11 01:52:00;;;;;;;25.90;17.00;;;;;;;-1.36;60.44;101548.33;105987;1251;64169;-70
2023/02/11 01:57:26;;;;;;;26.00;16.30;;;;;;;-1.32;60.57;101542.42;105982;1256;66616;-71
2023/02/11 02:00:19;;;;;;;23.10;15.70;;;;;;;-1.31;60.72;101537.91;106741;1254;60463;-70
2023/02/11 02:03:05;;;;;;;26.30;16.60;;;;;;;-1.29;60.78;101531.84;106046;1250;60405;-74
2023/02/11 02:05:47;;;;;;;27.90;17.10;;;;;;;-1.28;60.89;101530.10;106516;1252;66895;-71
2023/02/11 02:08:30;;;;;;;25.40;15.80;;;;;;;-1.26;60.96;101533.87;106237;1254;60550;-70
2023/02/11 02:11:06;;;;;;;28.30;17.10;;;;;;;-1.24;60.98;101532.13;106374;1251;63993;-69
2023/02/11 02:13:38;;;;;;;25.40;16.40;;;;;;;-1.23;60.96;101527.96;106187;1254;60325;-71
2023/02/11 02:16:11;;;;;;;27.80;17.50;;;;;;;-1.23;61.11;101525.38;106388;1251;60539;-71
2023/02/11 02:19:21;;;;;;;25.00;17.00;;;;;;;-1.21;61.18;101526.56;106538;1259;67825;-69
2023/02/11 02:22:03;;;;;;;28.00;17.20;;;;;;;-1.21;61.25;101530.00;106844;1251;60497;-69
2023/02/11 02:25:04;;;;;;;31.50;17.80;;;;;;;-1.20;61.22;101530.16;106430;1251;64457;-70
2023/02/11 02:28:11;;;;;;;28.60;17.30;;;;;;;-1.18;61.31;101529.45;106357;1251;60501;-71
2023/02/11 02:31:11;;;;;;;25.90;16.40;;;;;;;-1.17;61.37;101530.13;106880;1254;60433;-71
2023/02/11 02:33:44;;;;;;;28.60;17.60;;;;;;;-1.17;61.39;101533.92;106155;1256;66107;-71
2023/02/11 02:36:31;;;;;;;27.80;18.00;;;;;;;-1.17;61.40;101537.04;106091;1251;60544;-70
2023/02/11 02:39:07;;;;;;;28.70;17.60;;;;;;;-1.17;61.57;101539.45;106899;1250;64062;-70
2023/02/11 02:41:35;;;;;;;28.70;17.50;;;;;;;-1.15;61.64;101540.33;105649;1256;60412;-71
2023/02/11 02:44:03;;;;;;;29.20;17.80;;;;;;;-1.15;61.71;101540.84;105664;1259;59875;-70
2023/02/11 02:46:35;;;;;;;28.40;16.70;;;;;;;-1.14;61.96;101540.65;107641;1254;66958;-69
2023/02/11 02:49:06;;;;;;;27.40;17.10;;;;;;;-1.13;61.86;101541.16;105760;1251;60382;-70
2023/02/11 02:52:13;;;;;;;27.90;17.50;;;;;;;-1.12;61.94;101540.96;105762;1259;65565;-70
2023/02/11 02:55:07;;;;;;;27.50;17.70;;;;;;;-1.09;62.05;101542.66;105903;1256;60357;-71
2023/02/11 02:58:04;;;;;;;29.90;17.60;;;;;;;-1.09;62.05;101542.98;106616;1251;60482;-71
2023/02/11 03:00:59;;;;;;;26.90;17.40;;;;;;;-1.11;62.26;101546.83;106296;1251;66683;-69
2023/02/11 03:03:30;;;;;;;26.60;17.00;;;;;;;-1.13;62.24;101544.62;106050;1251;60448;-70
2023/02/11 03:06:12;;;;;;;26.20;16.30;;;;;;;-1.13;62.34;101543.92;106255;1251;65641;-69
2023/02/11 03:08:50;;;;;;;26.80;17.50;;;;;;;-1.12;62.37;101541.67;106159;1251;60443;-70
2023/02/11 03:11:19;;;;;;;28.00;18.40;;;;;;;-1.13;62.45;101540.81;106056;1251;60431;-69
2023/02/11 03:13:48;;;;;;;27.20;17.70;;;;;;;-1.12;62.50;101538.02;106119;1250;66524;-69
2023/02/11 03:16:23;;;;;;;28.10;17.60;;;;;;;-1.12;62.53;101532.85;106042;1251;60503;-68
2023/02/11 03:19:20;;;;;;;27.70;18.60;;;;;;;-1.11;62.54;101535.94;106020;1251;65339;-70
2023/02/11 03:21:49;;;;;;;27.50;18.10;;;;;;;-1.09;62.76;101530.37;105531;1251;191683;-69
2023/02/11 03:24:31;;;;;;;27.70;18.20;;;;;;;-1.08;62.73;101528.80;106622;1252;60927;-69
2023/02/11 03:27:08;;;;;;;26.40;18.20;;;;;;;-1.08;62.76;101527.25;105948;1251;66683;-69
2023/02/11 03:30:12;;;;;;;27.30;18.60;;;;;;;-1.08;62.78;101524.48;105711;1252;60396;-70
2023/02/11 03:33:00;;;;;;;29.20;19.00;;;;;;;-1.07;62.83;101517.02;105867;1254;65009;-69
2023/02/11 03:35:34;;;;;;;26.50;16.50;;;;;;;-1.07;62.83;101515.99;105526;1251;60980;-69
2023/02/11 03:38:41;;;;;;;28.70;18.70;;;;;;;-1.09;62.93;101513.95;105543;1256;61128;-70
2023/02/11 03:41:09;;;;;;;29.80;19.40;;;;;;;-1.12;63.07;101516.42;105534;1251;65337;-69
2023/02/11 03:43:43;;;;;;;31.50;22.30;;;;;;;-1.14;63.07;101515.41;105496;1254;60446;-69
2023/02/11 03:46:12;;;;;;;32.30;21.00;;;;;;;-1.14;63.13;101515.77;105635;1251;65262;-69
2023/02/11 03:48:43;;;;;;;30.80;21.50;;;;;;;-1.15;63.17;101514.57;106310;1251;59328;-69
2023/02/11 03:51:11;;;;;;;31.10;20.30;;;;;;;-1.15;63.28;101507.14;105625;1254;60517;-69
2023/02/11 03:53:41;;;;;;;33.90;20.60;;;;;;;-1.16;63.28;101505.23;105647;1253;66171;-70
2023/02/11 03:56:13;;;;;;;30.20;18.70;;;;;;;-1.18;63.36;101506.27;105601;1251;60477;-68
2023/02/11 03:58:44;;;;;;;23.30;14.50;;;;;;;-1.18;63.54;101504.39;105630;1252;65520;-70
2023/02/11 04:01:12;;;;;;;29.50;18.30;;;;;;;-1.19;63.55;101505.79;106852;1252;61187;-70
2023/02/11 04:03:41;;;;;;;32.90;19.40;;;;;;;-1.19;63.61;101510.28;105643;1251;60419;-70
2023/02/11 04:06:09;;;;;;;33.10;20.00;;;;;;;-1.21;63.81;101508.92;105899;1254;66592;-69
2023/02/11 04:08:37;;;;;;;30.30;19.30;;;;;;;-1.20;63.80;101506.84;105461;1258;60379;-69
2023/02/11 04:11:10;;;;;;;29.70;18.80;;;;;;;-1.18;63.90;101505.59;106010;1258;65144;-74
2023/02/11 04:13:39;;;;;;;30.90;19.00;;;;;;;-1.16;63.91;101501.09;106399;1251;60497;-70
2023/02/11 04:16:07;;;;;;;28.00;17.60;;;;;;;-1.14;63.97;101497.27;106315;1250;60467;-69
2023/02/11 04:18:41;;;;;;;32.10;20.70;;;;;;;-1.13;64.11;101492.77;106347;1254;66426;-70
2023/02/11 04:21:09;;;;;;;28.10;19.70;;;;;;;-1.14;64.09;101491.91;105914;1251;60402;-70
2023/02/11 04:23:37;;;;;;;30.70;21.00;;;;;;;-1.12;64.11;101492.75;105982;1256;64562;-69
2023/02/11 04:26:06;;;;;;;28.80;18.30;;;;;;;-1.11;64.12;101493.77;105886;1251;60428;-71
2023/02/11 04:28:35;;;;;;;28.60;18.60;;;;;;;-1.10;64.26;101491.49;105854;1252;60408;-70
2023/02/11 04:31:04;;;;;;;27.00;18.20;;;;;;;-1.09;64.24;101496.51;107864;1250;66454;-69
2023/02/11 04:33:32;;;;;;;27.00;18.00;;;;;;;-1.08;64.31;101492.85;106602;1251;68363;-71
2023/02/11 04:36:01;;;;;;;30.40;18.50;;;;;;;-1.05;64.43;101485.05;106078;1256;64264;-70
2023/02/11 04:38:29;;;;;;;28.30;18.40;;;;;;;-1.04;64.35;101480.36;106436;1256;60392;-70
2023/02/11 04:40:59;;;;;;;28.50;18.30;;;;;;;-1.03;64.33;101477.59;106026;1251;60527;-69
2023/02/11 04:43:30;;;;;;;32.50;18.70;;;;;;;-1.02;64.40;101476.02;105269;1257;66725;-69
2023/02/11 04:45:59;;;;;;;28.40;18.70;;;;;;;-1.02;64.41;101472.38;105489;1251;60523;-69
2023/02/11 04:48:27;;;;;;;26.70;16.70;;;;;;;-1.03;64.52;101468.95;105863;1251;65432;-70
2023/02/11 04:50:56;;;;;;;29.70;19.20;;;;;;;-1.03;64.51;101466.53;106258;1250;60421;-70
2023/02/11 04:53:24;;;;;;;28.30;19.10;;;;;;;-1.05;64.46;101466.20;105544;1251;60480;-69
2023/02/11 04:55:52;;;;;;;28.90;18.70;;;;;;;-1.05;64.48;101467.08;105663;1251;65199;-70
2023/02/11 04:58:21;;;;;;;30.10;19.00;;;;;;;-1.06;64.68;101468.11;105803;1251;60539;-70
2023/02/11 05:00:49;;;;;;;29.80;18.80;;;;;;;-1.08;64.75;101469.52;105633;1254;65731;-71
2023/02/11 05:03:18;;;;;;;30.30;19.10;;;;;;;-1.10;64.83;101469.90;105734;1251;60424;-71
2023/02/11 05:05:46;;;;;;;29.30;18.30;;;;;;;-1.11;64.93;101468.70;106144;1256;60445;-70
2023/02/11 05:08:14;;;;;;;29.00;17.80;;;;;;;-1.13;65.01;101472.71;106201;1250;66651;-71
2023/02/11 05:10:45;;;;;;;31.20;19.60;;;;;;;-1.16;65.08;101473.43;106239;1251;60379;-70
2023/02/11 05:13:15;;;;;;;29.30;19.50;;;;;;;-1.19;65.31;101470.02;106340;1252;63967;-69
2023/02/11 05:15:47;;;;;;;33.20;19.60;;;;;;;-1.21;65.45;101471.79;106319;1257;60437;-69
2023/02/11 05:18:16;;;;;;;30.40;19.10;;;;;;;-1.23;65.55;101474.23;106417;1258;60476;-70
2023/02/11 05:20:44;;;;;;;32.10;19.90;;;;;;;-1.24;65.67;101475.10;106238;1251;65162;-70
2023/02/11 05:23:12;;;;;;;34.50;21.10;;;;;;;-1.24;65.80;101471.30;106207;1251;60472;-69
2023/02/11 05:25:41;;;;;;;34.10;21.20;;;;;;;-1.25;65.97;101471.66;106274;1250;65474;-70
2023/02/11 05:28:09;;;;;;;33.70;20.90;;;;;;;-1.25;66.00;101469.41;106988;1250;60360;-70
2023/02/11 05:30:38;;;;;;;31.90;20.60;;;;;;;-1.24;66.04;101467.50;106076;1259;60433;-70
2023/02/11 05:33:06;;;;;;;32.70;21.10;;;;;;;-1.24;66.10;101467.67;106346;1251;65749;-71
2023/02/11 05:35:35;;;;;;;34.70;21.90;;;;;;;-1.23;66.26;101464.02;106631;1251;60437;-72
2023/02/11 05:38:03;;;;;;;36.60;24.10;;;;;;;-1.22;66.27;101464.36;106805;1254;65121;-70
2023/02/11 05:40:32;;;;;;;36.10;24.80;;;;;;;-1.21;66.33;101467.63;106216;1251;60540;-69
2023/02/11 05:43:00;;;;;;;36.70;24.60;;;;;;;-1.20;66.47;101466.90;106320;1251;60475;-71
2023/02/11 05:45:29;;;;;;;37.40;23.50;;;;;;;-1.18;66.38;101470.00;106089;1256;66557;-69
2023/02/11 05:47:58;;;;;;;41.60;24.70;;;;;;;-1.16;66.51;101469.11;106291;1251;60439;-70
2023/02/11 05:50:26;;;;;;;46.60;27.40;;;;;;;-1.14;66.61;101466.50;106354;1254;65481;-69
2023/02/11 05:52:55;;;;;;;48.10;27.10;;;;;;;-1.11;66.52;101463.01;106242;1256;60517;-72
2023/02/11 05:55:23;;;;;;;44.10;27.00;;;;;;;-1.07;66.59;101461.38;107420;1252;60449;-71
2023/02/11 05:57:52;;;;;;;45.40;26.50;;;;;;;-1.03;66.60;101460.13;107407;1254;66441;-70
2023/02/11 06:00:20;;;;;;;44.20;26.20;;;;;;;-1.00;66.60;101457.12;107660;1251;60412;-71
2023/02/11 06:02:48;;;;;;;36.50;22.90;;;;;;;-0.97;66.53;101457.60;105918;1251;64573;-69
2023/02/11 06:05:17;;;;;;;34.30;22.80;;;;;;;-0.93;66.57;101455.14;106049;1250;60523;-70
2023/02/11 06:07:46;;;;;;;34.90;22.40;;;;;;;-0.93;66.52;101455.31;106306;1251;60495;-69
2023/02/11 06:10:14;;;;;;;34.60;22.50;;;;;;;-0.95;66.67;101455.88;105971;1259;66790;-70
2023/02/11 06:12:43;;;;;;;33.80;21.30;;;;;;;-0.97;66.76;101451.20;106286;1254;60373;-70
2023/02/11 06:15:12;;;;;;;33.10;21.40;;;;;;;-0.99;66.77;101447.60;106441;1251;64852;-71
2023/02/11 06:17:41;;;;;;;33.00;21.10;;;;;;;-0.99;66.94;101444.50;105917;1251;60580;-70
2023/02/11 06:20:14;;;;;;;32.80;21.20;;;;;;;-0.99;66.92;101442.41;105855;1251;60533;-70
2023/02/11 06:22:42;;;;;;;33.50;21.00;;;;;;;-0.98;66.97;101443.96;106247;1254;66501;-71
2023/02/11 06:25:10;;;;;;;34.40;22.30;;;;;;;-0.98;67.14;101438.77;106181;1251;60536;-69
2023/02/11 06:27:39;;;;;;;33.00;22.00;;;;;;;-0.94;67.17;101438.90;105987;1252;65575;-70
2023/02/11 06:30:09;;;;;;;33.70;22.00;;;;;;;-0.90;67.23;101439.35;106331;1252;60645;-71
2023/02/11 06:32:38;;;;;;;36.00;21.40;;;;;;;-0.87;67.25;101443.27;107034;1251;60428;-72
2023/02/11 06:35:13;;;;;;;32.00;21.60;;;;;;;-0.82;67.32;101444.94;106113;1259;66755;-70
2023/02/11 06:37:41;;;;;;;35.30;22.20;;;;;;;-0.78;67.21;101449.19;105989;1258;60401;-69
2023/02/11 06:40:10;;;;;;;33.70;22.50;;;;;;;-0.72;67.28;101449.97;106055;1260;65098;-71
2023/02/11 06:42:40;;;;;;;34.40;21.00;;;;;;;-0.66;67.27;101446.94;105872;1251;60546;-70
2023/02/11 06:45:09;;;;;;;34.20;21.70;;;;;;;-0.59;67.33;101452.70;106155;1254;60402;-70
2023/02/11 06:47:40;;;;;;;31.30;20.90;;;;;;;-0.52;67.35;101448.95;106468;1256;66710;-70
2023/02/11 06:50:11;;;;;;;37.10;22.10;;;;;;;-0.46;67.12;101445.39;106231;1251;60507;-71
2023/02/11 06:52:39;;;;;;;40.10;23.00;;;;;;;-0.39;67.18;101441.63;106490;1251;65644;-72
2023/02/11 06:55:07;;;;;;;35.20;21.40;;;;;;;-0.30;67.16;101439.05;106052;1253;60449;-69
2023/02/11 06:57:37;;;;;;;37.90;21.60;;;;;;;-0.21;67.08;101437.16;106116;1251;60472;-69
2023/02/11 07:00:06;;;;;;;32.70;21.60;;;;;;;-0.13;67.01;101434.25;106032;1251;65129;-70
2023/02/11 07:02:36;;;;;;;30.00;19.20;;;;;;;-0.08;66.94;101429.48;106124;1251;60427;-73
2023/02/11 07:05:06;;;;;;;26.90;18.40;;;;;;;-0.03;66.71;101423.34;105781;1251;65681;-68
2023/02/11 07:07:35;;;;;;;36.90;23.80;;;;;;;-0.01;66.50;101417.05;106202;1256;60389;-72
2023/02/11 07:10:06;;;;;;;37.80;22.50;;;;;;;-0.01;66.49;101413.94;105655;1251;60482;-70
2023/02/11 07:12:40;;;;;;;35.10;22.00;;;;;;;0.11;66.26;101409.90;105981;1252;66820;-72
2023/02/11 07:15:09;;;;;;;39.10;23.70;;;;;;;0.21;66.05;101410.91;106147;1251;60561;-72
2023/02/11 07:17:37;;;;;;;32.50;21.80;;;;;;;0.23;66.00;101409.30;106184;1252;64931;-71
2023/02/11 07:20:07;;;;;;;44.00;26.00;;;;;;;0.25;65.99;101410.65;105909;1259;60290;-70
2023/02/11 07:22:36;;;;;;;42.90;25.50;;;;;;;0.24;65.85;101410.49;106141;1251;60421;-70
2023/02/11 07:25:04;;;;;;;48.20;28.40;;;;;;;0.22;65.80;101406.75;106463;1251;65984;-70
2023/02/11 07:27:33;;;;;;;48.30;30.50;;;;;;;0.19;65.83;101401.25;105940;1251;60449;-70
2023/02/11 07:30:02;;;;;;;44.80;27.70;;;;;;;0.19;65.87;101396.39;106115;1251;65315;-71
2023/02/11 07:32:34;;;;;;;40.00;26.40;;;;;;;0.20;65.87;101389.80;106869;1251;59352;-69
2023/02/11 07:35:03;;;;;;;41.70;25.00;;;;;;;0.24;65.92;101391.63;105691;1252;60344;-70
2023/02/11 07:37:33;;;;;;;43.10;25.20;;;;;;;0.28;65.91;101393.95;105974;1259;66772;-70
2023/02/11 07:40:02;;;;;;;39.30;24.80;;;;;;;0.32;65.86;101393.20;106021;1251;60383;-70
2023/02/11 07:42:31;;;;;;;36.30;22.60;;;;;;;0.36;65.77;101390.68;106002;1251;65047;-71
2023/02/11 07:45:00;;;;;;;35.60;21.70;;;;;;;0.36;65.70;101392.40;105810;1252;60546;-72
2023/02/11 07:47:29;;;;;;;38.10;23.80;;;;;;;0.38;65.66;101386.30;106113;1252;60395;-71
2023/02/11 07:49:58;;;;;;;39.00;23.20;;;;;;;0.40;65.74;101385.58;106513;1257;66341;-72
2023/02/11 07:52:29;;;;;;;39.10;23.50;;;;;;;0.42;65.60;101380.67;106290;1251;60543;-71
2023/02/11 07:54:58;;;;;;;37.10;23.60;;;;;;;0.45;65.58;101380.77;105860;1260;65232;-72
2023/02/11 07:57:26;;;;;;;38.50;23.30;;;;;;;0.48;65.52;101381.94;106024;1251;60488;-71
2023/02/11 07:59:55;;;;;;;34.90;21.80;;;;;;;0.51;65.42;101377.89;106086;1252;60328;-71
2023/02/11 08:02:23;;;;;;;37.80;23.10;;;;;;;0.55;65.25;101371.89;106297;1254;66308;-71
2023/02/11 08:04:52;;;;;;;38.20;23.40;;;;;;;0.60;65.23;101368.34;106421;1254;60379;-71
2023/02/11 08:07:20;;;;;;;36.30;21.50;;;;;;;0.63;65.07;101359.77;106024;1257;65630;-72
2023/02/11 08:09:54;;;;;;;34.70;20.80;;;;;;;0.65;65.06;101361.27;106139;1251;60376;-71
2023/02/11 08:12:22;;;;;;;34.00;20.20;;;;;;;0.69;64.97;101360.33;106206;1257;60445;-71
2023/02/11 08:14:50;;;;;;;35.30;22.20;;;;;;;0.73;64.92;101362.64;106796;1251;65718;-69
2023/02/11 08:17:19;;;;;;;34.10;20.90;;;;;;;0.77;64.84;101353.20;106079;1256;60452;-70
2023/02/11 08:19:47;;;;;;;36.70;22.40;;;;;;;0.81;64.73;101351.37;106220;1257;65805;-70
2023/02/11 08:22:15;;;;;;;37.80;22.30;;;;;;;0.83;64.56;101348.89;106445;1253;60401;-71
2023/02/11 08:24:44;;;;;;;37.70;22.50;;;;;;;0.83;64.67;101343.16;106219;1257;60452;-70
2023/02/11 08:27:14;;;;;;;36.30;22.30;;;;;;;0.84;64.62;101337.77;106043;1256;66846;-70
2023/02/11 08:29:43;;;;;;;35.00;22.00;;;;;;;0.88;64.49;101335.96;105994;1257;60399;-70
2023/02/11 08:32:14;;;;;;;41.30;23.10;;;;;;;0.92;64.47;101330.64;106391;1251;65570;-70
2023/02/11 08:34:43;;;;;;;37.00;21.80;;;;;;;0.98;64.36;101330.66;106108;1254;60539;-69
2023/02/11 08:37:11;;;;;;;37.50;23.30;;;;;;;1.05;64.35;101327.20;106134;1256;60348;-70
2023/02/11 08:39:39;;;;;;;38.60;24.20;;;;;;;1.11;64.27;101328.27;106142;1254;65977;-70
2023/02/11 08:42:07;;;;;;;40.00;24.30;;;;;;;1.18;64.10;101325.48;106143;1254;60418;-71
2023/02/11 08:44:36;;;;;;;34.70;21.20;;;;;;;1.29;63.90;101324.52;106042;1256;65668;-70
2023/02/11 08:47:05;;;;;;;34.10;21.90;;;;;;;1.41;63.60;101320.55;105939;1256;60482;-70
2023/02/11 08:49:33;;;;;;;32.10;21.20;;;;;;;1.54;63.47;101317.61;106189;1251;60622;-70
2023/02/11 08:52:03;;;;;;;31.70;20.10;;;;;;;1.68;63.14;101319.13;106427;1257;66696;-70
2023/02/11 08:54:33;;;;;;;32.20;20.20;;;;;;;1.81;62.55;101313.21;106232;1257;60453;-71
2023/02/11 08:57:02;;;;;;;32.50;20.90;;;;;;;1.91;62.54;101312.21;106171;1257;65573;-70
2023/02/11 08:59:30;;;;;;;31.10;20.50;;;;;;;2.01;62.37;101305.52;105800;1251;60440;-71
2023/02/11 09:01:59;;;;;;;33.40;20.60;;;;;;;2.04;62.23;101301.77;105996;1251;60402;-70
2023/02/11 09:04:27;;;;;;;28.20;17.60;;;;;;;2.06;61.97;101298.95;106132;1257;65158;-70
2023/02/11 09:06:55;;;;;;;32.20;18.80;;;;;;;1.99;61.76;101299.33;105840;1256;60481;-71
2023/02/11 09:09:24;;;;;;;31.10;19.20;;;;;;;2.08;61.41;101295.05;106428;1251;65931;-71
2023/02/11 09:11:56;;;;;;;31.20;18.70;;;;;;;2.20;61.13;101291.04;106107;1260;60473;-71
2023/02/11 09:14:24;;;;;;;29.50;17.70;;;;;;;2.26;60.96;101283.92;106186;1251;60469;-71
2023/02/11 09:16:52;;;;;;;28.40;18.50;;;;;;;2.27;60.97;101281.95;106092;1255;66420;-71
2023/02/11 09:19:24;;;;;;;26.90;18.00;;;;;;;2.28;60.84;101278.09;105933;1258;60427;-72
2023/02/11 09:21:52;;;;;;;30.30;17.90;;;;;;;2.29;60.57;101271.65;105835;1252;65574;-70
2023/02/11 09:24:21;;;;;;;26.80;16.30;;;;;;;2.26;60.02;101271.56;105913;1255;61233;-74
2023/02/11 09:26:49;;;;;;;26.70;16.00;;;;;;;2.23;59.48;101266.30;106179;1257;61317;-74
2023/02/11 09:29:17;;;;;;;22.80;14.00;;;;;;;2.19;59.16;101263.27;106092;1256;67531;-72
2023/02/11 09:31:45;;;;;;;24.00;13.90;;;;;;;2.15;58.95;101260.78;106627;1256;61246;-72
2023/02/11 09:34:14;;;;;;;28.60;15.60;;;;;;;2.16;59.03;101257.64;106315;1256;65544;-73
2023/02/11 09:36:44;;;;;;;27.30;14.40;;;;;;;2.18;58.90;101258.95;107570;1256;61620;-74
2023/02/11 09:39:15;;;;;;;24.40;15.20;;;;;;;2.21;58.56;101252.60;106077;1251;61212;-74
2023/02/11 09:42:13;;;;;;;25.00;13.60;;;;;;;2.24;58.42;101250.79;105907;1256;67443;-73
2023/02/11 09:44:43;;;;;;;20.70;11.70;;;;;;;2.26;57.96;101246.89;106197;1251;61332;-74
2023/02/11 09:47:33;;;;;;;19.40;12.60;;;;;;;2.27;57.51;101243.22;105831;1257;65588;-74
2023/02/11 09:50:06;;;;;;;22.10;12.20;;;;;;;2.31;57.39;101231.27;105647;1251;61290;-74
2023/02/11 09:52:39;;;;;;;21.90;13.50;;;;;;;2.39;57.40;101223.20;105957;1256;61230;-73
2023/02/11 09:55:21;;;;;;;22.60;13.10;;;;;;;2.52;57.53;101218.25;106001;1251;67608;-73
2023/02/11 09:57:49;;;;;;;23.00;12.60;;;;;;;2.71;57.23;101211.54;105982;1258;61501;-74
2023/02/11 10:00:20;;;;;;;22.30;12.50;;;;;;;2.87;56.57;101209.42;105936;1256;64184;-73
2023/02/11 10:02:57;;;;;;;18.60;10.70;;;;;;;3.00;55.90;101204.64;105925;1251;61311;-73
2023/02/11 10:05:43;;;;;;;18.80;11.10;;;;;;;3.08;55.56;101199.14;105958;1259;61286;-76
2023/02/11 10:08:13;;;;;;;18.70;10.80;;;;;;;3.13;54.87;101191.83;106062;1254;67551;-73
2023/02/11 10:10:53;;;;;;;19.10;11.20;;;;;;;3.08;54.47;101181.21;106410;1254;61233;-74
2023/02/11 10:13:39;;;;;;;19.90;10.70;;;;;;;3.03;54.54;101173.40;105712;1258;65586;-74
2023/02/11 10:16:34;;;;;;;18.10;10.30;;;;;;;2.98;54.35;101163.80;106084;1252;61226;-73
2023/02/11 10:19:18;;;;;;;21.10;11.00;;;;;;;2.98;54.22;101154.58;106099;1254;61208;-74
2023/02/11 10:21:59;;;;;;;20.30;11.90;;;;;;;2.97;54.26;101150.10;105817;1259;67120;-76
2023/02/11 10:24:31;;;;;;;22.20;12.40;;;;;;;2.98;54.22;101148.86;106031;1251;61215;-74
2023/02/11 10:27:03;;;;;;;21.60;13.00;;;;;;;2.98;54.15;101148.84;106054;1257;64526;-74
2023/02/11 10:29:35;;;;;;;25.20;13.40;;;;;;;3.01;54.36;101144.56;106030;1251;61246;-75
2023/02/11 10:32:08;;;;;;;19.70;12.60;;;;;;;3.08;54.40;101139.62;106066;1251;61243;-73
2023/02/11 10:34:39;;;;;;;19.30;11.10;;;;;;;3.13;54.04;101139.95;105877;1257;67328;-74
2023/02/11 10:37:11;;;;;;;20.40;12.00;;;;;;;3.11;53.68;101127.67;105861;1251;61290;-74
2023/02/11 10:39:43;;;;;;;21.30;12.40;;;;;;;3.10;53.82;101124.05;105907;1257;65571;-73
2023/02/11 10:42:12;;;;;;;21.60;13.30;;;;;;;3.11;53.71;101126.11;105971;1251;61217;-73
2023/02/11 10:44:56;;;;;;;22.00;11.30;;;;;;;3.11;53.79;101122.11;106030;1251;61699;-74
2023/02/11 10:47:27;;;;;;;20.70;11.70;;;;;;;3.06;53.34;101114.29;105867;1251;66303;-74
2023/02/11 10:50:02;;;;;;;21.20;12.50;;;;;;;2.99;53.27;101112.63;105858;1257;61173;-74
2023/02/11 10:52:33;;;;;;;20.00;11.70;;;;;;;2.96;53.47;101108.59;106897;1254;65628;-74
2023/02/11 10:55:05;;;;;;;18.80;11.10;;;;;;;2.96;53.44;101104.38;106015;1254;61333;-71
2023/02/11 10:57:36;;;;;;;20.40;11.70;;;;;;;2.94;53.62;101101.35;105809;1258;61288;-70
2023/02/11 11:00:17;;;;;;;18.90;11.60;;;;;;;2.92;53.70;101105.09;106121;1254;67780;-72
2023/02/11 11:02:52;;;;;;;17.70;11.50;;;;;;;2.88;53.81;101100.52;105950;1251;61247;-71
2023/02/11 11:05:26;;;;;;;18.60;11.40;;;;;;;2.80;53.94;101090.86;105785;1259;64545;-72
2023/02/11 11:08:03;;;;;;;18.60;11.00;;;;;;;2.75;54.14;101087.77;105891;1251;61266;-76
2023/02/11 11:10:42;;;;;;;19.90;11.50;;;;;;;2.74;54.50;101079.80;105902;1257;61327;-76
2023/02/11 11:13:24;;;;;;;24.20;12.40;;;;;;;2.72;54.64;101079.52;105842;1260;67380;-74
2023/02/11 11:16:07;;;;;;;;;;;;;;;2.69;54.91;101073.71;105993;1251;61237;-71
2023/02/11 11:18:36;;;;;;;20.50;12.50;;;;;;;2.68;55.34;101074.27;105906;1251;64655;-72
2023/02/11 11:21:10;;;;;;;23.80;13.50;;;;;;;2.69;55.51;101065.71;105870;1256;61233;-71
2023/02/11 11:23:38;;;;;;;;;;;;;;;2.71;55.63;101065.48;106010;1254;61233;-71
2023/02/11 11:26:09;;;;;;;24.80;13.80;;;;;;;2.72;55.75;101061.98;105984;1254;67213;-73
2023/02/11 11:28:40;;;;;;;22.40;12.90;;;;;;;2.73;55.87;101060.02;105774;1258;61275;-74
2023/02/11 11:31:14;;;;;;;25.70;14.50;;;;;;;2.77;55.99;101053.92;106066;1254;64564;-74